createdAt,value
2023-03-13T00:00:25.981Z,28.85
2023-03-13T00:01:34.685Z,28.30
2023-03-13T00:02:36.805Z,21.33
2023-03-13T00:03:38.807Z,19.77
2023-03-13T00:04:40.727Z,19.30
2023-03-13T00:05:42.909Z,19.23
2023-03-13T00:06:45.171Z,19.92
2023-03-13T00:07:47.060Z,16.75
2023-03-13T00:08:48.965Z,14.65
2023-03-13T00:09:50.997Z,15.38
2023-03-13T00:10:52.942Z,14.38
2023-03-13T00:11:55.283Z,15.15
2023-03-13T00:12:57.272Z,18.95
2023-03-13T00:14:02.298Z,15.40
2023-03-13T00:15:04.363Z,19.45
2023-03-13T00:16:09.536Z,15.20
2023-03-13T00:17:11.854Z,22.67
2023-03-13T00:18:13.834Z,19.35
2023-03-13T00:19:15.872Z,17.12
2023-03-13T00:20:17.793Z,17.85
2023-03-13T00:21:22.292Z,17.17
2023-03-13T00:22:24.665Z,15.23
2023-03-13T00:23:26.645Z,14.98
2023-03-13T00:24:28.515Z,13.20
2023-03-13T00:25:30.454Z,14.73
2023-03-13T00:26:32.375Z,22.85
2023-03-13T00:27:34.992Z,15.35
2023-03-13T00:28:38.440Z,15.40
2023-03-13T00:29:41.285Z,16.70
2023-03-13T00:30:43.292Z,17.35
2023-03-13T00:31:45.310Z,16.33
2023-03-13T00:32:48.623Z,15.32
2023-03-13T00:33:53.168Z,16.30
2023-03-13T00:34:55.143Z,17.45
2023-03-13T00:36:05.485Z,18.05
2023-03-13T00:37:07.483Z,21.23
2023-03-13T00:38:09.835Z,16.65
2023-03-13T00:39:11.735Z,19.37
2023-03-13T00:40:13.786Z,17.77
2023-03-13T00:41:19.092Z,19.10
2023-03-13T00:42:22.571Z,21.40
2023-03-13T00:43:24.836Z,18.48
2023-03-13T00:44:26.770Z,24.92
2023-03-13T00:45:28.638Z,17.45
2023-03-13T00:46:31.465Z,19.23
2023-03-13T00:47:33.386Z,16.15
2023-03-13T00:48:37.389Z,15.85
2023-03-13T00:49:39.246Z,19.67
2023-03-13T00:50:41.138Z,21.67
2023-03-13T00:51:43.077Z,19.40
2023-03-13T00:52:44.944Z,19.85
2023-03-13T00:53:47.685Z,19.33
2023-03-13T00:54:49.616Z,20.25
2023-03-13T00:56:05.975Z,24.35
2023-03-13T00:57:07.887Z,21.40
2023-03-13T00:58:09.777Z,27.23
2023-03-13T00:59:12.083Z,19.48
2023-03-13T01:00:16.234Z,19.00
2023-03-13T01:01:30.829Z,18.37
2023-03-13T01:02:32.948Z,17.62
2023-03-13T01:03:36.206Z,23.50
2023-03-13T01:04:38.454Z,22.90
2023-03-13T01:05:40.539Z,23.10
2023-03-13T01:06:43.149Z,22.45
2023-03-13T01:07:45.135Z,16.77
2023-03-13T01:08:47.380Z,18.52
2023-03-13T01:09:49.604Z,21.67
2023-03-13T01:10:51.534Z,16.58
2023-03-13T01:11:53.463Z,22.23
2023-03-13T01:12:55.672Z,26.33
2023-03-13T01:14:00.244Z,23.98
2023-03-13T01:15:02.500Z,27.90
2023-03-13T01:16:10.445Z,22.35
2023-03-13T01:17:12.402Z,21.92
2023-03-13T01:18:15.485Z,23.48
2023-03-13T01:19:18.108Z,20.92
2023-03-13T01:20:20.491Z,25.17
2023-03-13T01:21:23.861Z,24.52
2023-03-13T01:22:25.771Z,19.58
2023-03-13T01:23:28.586Z,22.48
2023-03-13T01:24:30.504Z,20.70
2023-03-13T01:25:36.560Z,19.65
2023-03-13T01:26:38.552Z,24.17
2023-03-13T01:27:40.483Z,21.20
2023-03-13T01:28:42.764Z,19.15
2023-03-13T01:29:44.786Z,19.95
2023-03-13T01:30:47.126Z,20.35
2023-03-13T01:31:49.089Z,18.95
2023-03-13T01:32:51.082Z,21.52
2023-03-13T01:33:59.301Z,27.37
2023-03-13T01:35:01.645Z,23.27
2023-03-13T01:36:04.448Z,22.40
2023-03-13T01:37:06.417Z,23.00
2023-03-13T01:38:08.643Z,23.62
2023-03-13T01:39:10.666Z,20.25
2023-03-13T01:40:13.100Z,18.33
2023-03-13T01:41:15.492Z,20.95
2023-03-13T01:42:17.908Z,19.27
2023-03-13T01:43:27.753Z,19.33
2023-03-13T01:44:30.211Z,25.02
2023-03-13T01:45:54.883Z,47.40
2023-03-13T01:46:57.432Z,54.00
2023-03-13T01:48:00.697Z,95.93
2023-03-13T01:49:05.773Z,104.72
2023-03-13T01:50:08.636Z,86.82
2023-03-13T01:51:32.053Z,134.75
2023-03-13T01:52:35.271Z,70.28
2023-03-13T01:53:41.446Z,75.40
2023-03-13T01:55:07.528Z,58.53
2023-03-13T01:56:15.742Z,54.33
2023-03-13T01:57:34.035Z,43.33
2023-03-13T01:58:38.281Z,28.92
2023-03-13T01:59:47.716Z,26.60
2023-03-13T02:00:50.094Z,18.67
2023-03-13T02:01:55.228Z,19.30
2023-03-13T02:03:01.327Z,32.65
2023-03-13T02:04:04.965Z,40.17
2023-03-13T02:05:07.640Z,31.48
2023-03-13T02:06:10.567Z,36.03
2023-03-13T02:07:18.830Z,27.10
2023-03-13T02:08:36.348Z,21.95
2023-03-13T02:09:42.000Z,20.35
2023-03-13T02:10:51.968Z,18.52
2023-03-13T02:12:01.119Z,25.40
2023-03-13T02:13:03.496Z,26.67
2023-03-13T02:14:05.839Z,27.58
2023-03-13T02:15:15.030Z,25.00
2023-03-13T02:16:17.406Z,19.80
2023-03-13T02:17:23.614Z,17.85
2023-03-13T02:18:26.602Z,16.00
2023-03-13T02:19:33.124Z,15.02
2023-03-13T02:20:39.607Z,16.02
2023-03-13T02:21:52.491Z,17.00
2023-03-13T02:22:57.421Z,18.75
2023-03-13T02:24:09.727Z,16.55
2023-03-13T02:25:17.170Z,15.27
2023-03-13T02:26:19.425Z,14.38
2023-03-13T02:27:21.711Z,12.88
2023-03-13T02:28:33.281Z,14.77
2023-03-13T02:29:35.728Z,12.65
2023-03-13T02:30:39.803Z,13.70
2023-03-13T02:31:41.754Z,16.52
2023-03-13T02:32:45.530Z,14.48
2023-03-13T02:33:47.860Z,13.02
2023-03-13T02:34:55.027Z,14.80
2023-03-13T02:35:59.700Z,13.27
2023-03-13T02:37:03.503Z,13.90
2023-03-13T02:38:09.960Z,16.55
2023-03-13T02:39:14.325Z,13.07
2023-03-13T02:40:22.244Z,18.30
2023-03-13T02:41:25.680Z,19.55
2023-03-13T02:42:29.450Z,18.55
2023-03-13T02:43:38.927Z,18.33
2023-03-13T02:44:42.750Z,13.85
2023-03-13T02:46:11.154Z,14.30
2023-03-13T02:47:22.820Z,14.40
2023-03-13T02:48:55.734Z,16.33
2023-03-13T02:49:58.082Z,15.90
2023-03-13T02:51:01.853Z,19.10
2023-03-13T02:52:19.073Z,18.62
2023-03-13T02:53:20.956Z,13.52
2023-03-13T02:54:27.094Z,15.50
2023-03-13T02:55:37.630Z,14.48
2023-03-13T02:56:42.507Z,15.60
2023-03-13T02:57:45.204Z,13.48
2023-03-13T02:58:50.299Z,19.87
2023-03-13T02:59:53.063Z,12.48
2023-03-13T03:00:55.396Z,13.30
2023-03-13T03:01:57.941Z,14.05
2023-03-13T03:02:59.958Z,15.50
2023-03-13T03:04:01.947Z,14.30
2023-03-13T03:05:04.415Z,13.57
2023-03-13T03:06:07.300Z,15.95
2023-03-13T03:07:09.483Z,15.60
2023-03-13T03:08:11.524Z,14.75
2023-03-13T03:09:13.768Z,13.20
2023-03-13T03:10:16.566Z,15.63
2023-03-13T03:11:18.818Z,12.45
2023-03-13T03:12:21.193Z,14.73
2023-03-13T03:13:23.215Z,14.07
2023-03-13T03:14:25.428Z,15.15
2023-03-13T03:15:27.415Z,11.70
2023-03-13T03:16:29.643Z,14.00
2023-03-13T03:17:32.111Z,10.45
2023-03-13T03:18:35.324Z,15.20
2023-03-13T03:19:37.826Z,14.30
2023-03-13T03:20:40.327Z,12.15
2023-03-13T03:21:42.642Z,12.82
2023-03-13T03:22:45.006Z,16.02
2023-03-13T03:23:47.163Z,16.00
2023-03-13T03:24:49.293Z,14.07
2023-03-13T03:25:51.278Z,13.45
2023-03-13T03:26:53.851Z,14.20
2023-03-13T03:27:56.161Z,11.23
2023-03-13T03:28:58.143Z,16.08
2023-03-13T03:30:00.390Z,15.90
2023-03-13T03:31:10.430Z,11.52
2023-03-13T03:32:12.759Z,11.45
2023-03-13T03:33:14.656Z,11.10
2023-03-13T03:34:16.609Z,12.98
2023-03-13T03:35:18.685Z,13.95
2023-03-13T03:36:23.622Z,13.20
2023-03-13T03:37:25.918Z,12.37
2023-03-13T03:38:28.688Z,14.90
2023-03-13T03:39:30.658Z,14.25
2023-03-13T03:40:33.435Z,16.05
2023-03-13T03:41:37.389Z,12.40
2023-03-13T03:42:40.531Z,14.00
2023-03-13T03:43:43.332Z,15.35
2023-03-13T03:44:45.783Z,12.48
2023-03-13T03:45:48.080Z,14.45
2023-03-13T03:46:50.108Z,14.10
2023-03-13T03:47:52.445Z,23.62
2023-03-13T03:48:54.853Z,16.80
2023-03-13T03:49:56.717Z,14.77
2023-03-13T03:50:59.061Z,18.37
2023-03-13T03:52:01.262Z,70.45
2023-03-13T03:53:04.089Z,46.90
2023-03-13T03:54:05.991Z,37.65
2023-03-13T03:55:08.496Z,35.85
2023-03-13T03:56:10.393Z,36.42
2023-03-13T03:57:12.848Z,31.65
2023-03-13T03:58:16.708Z,20.83
2023-03-13T03:59:19.693Z,31.42
2023-03-13T04:00:22.076Z,27.90
2023-03-13T04:01:25.011Z,15.15
2023-03-13T04:02:27.204Z,34.10
2023-03-13T04:03:29.161Z,24.52
2023-03-13T04:04:31.376Z,21.12
2023-03-13T04:05:33.686Z,14.07
2023-03-13T04:06:35.903Z,15.52
2023-03-13T04:07:38.701Z,14.60
2023-03-13T04:08:40.616Z,14.75
2023-03-13T04:09:42.980Z,12.25
2023-03-13T04:10:45.632Z,13.10
2023-03-13T04:11:47.863Z,16.40
2023-03-13T04:12:49.778Z,16.12
2023-03-13T04:13:51.728Z,12.68
2023-03-13T04:14:53.790Z,15.18
2023-03-13T04:15:55.926Z,14.73
2023-03-13T04:16:58.225Z,14.45
2023-03-13T04:18:00.493Z,14.55
2023-03-13T04:19:02.554Z,17.23
2023-03-13T04:20:07.426Z,22.70
2023-03-13T04:21:09.806Z,14.90
2023-03-13T04:22:12.615Z,14.25
2023-03-13T04:23:15.396Z,19.95
2023-03-13T04:24:17.362Z,17.10
2023-03-13T04:25:20.640Z,14.73
2023-03-13T04:26:24.198Z,14.73
2023-03-13T04:27:26.902Z,20.58
2023-03-13T04:28:28.931Z,18.23
2023-03-13T04:29:30.960Z,22.40
2023-03-13T04:30:33.444Z,12.80
2023-03-13T04:31:35.971Z,12.40
2023-03-13T04:32:38.427Z,15.45
2023-03-13T04:33:40.890Z,15.05
2023-03-13T04:34:42.852Z,12.82
2023-03-13T04:35:45.324Z,13.88
2023-03-13T04:36:48.037Z,12.73
2023-03-13T04:37:52.383Z,13.25
2023-03-13T04:38:54.561Z,13.73
2023-03-13T04:39:56.873Z,12.98
2023-03-13T04:40:59.128Z,13.62
2023-03-13T04:42:01.553Z,14.25
2023-03-13T04:43:04.458Z,12.75
2023-03-13T04:44:06.717Z,12.02
2023-03-13T04:45:12.053Z,14.80
2023-03-13T04:46:14.166Z,14.80
2023-03-13T04:47:16.353Z,15.60
2023-03-13T04:48:18.746Z,15.07
2023-03-13T04:49:20.762Z,14.05
2023-03-13T04:50:22.895Z,13.32
2023-03-13T04:51:25.054Z,14.87
2023-03-13T04:52:27.272Z,16.35
2023-03-13T04:53:29.942Z,18.33
2023-03-13T04:54:32.160Z,18.65
2023-03-13T04:55:34.442Z,15.23
2023-03-13T04:56:43.480Z,13.05
2023-03-13T04:57:46.067Z,26.55
2023-03-13T04:58:48.554Z,18.55
2023-03-13T04:59:50.886Z,16.60
2023-03-13T05:00:53.956Z,14.20
2023-03-13T05:01:56.124Z,13.57
2023-03-13T05:02:58.334Z,12.48
2023-03-13T05:04:00.765Z,18.20
2023-03-13T05:05:02.927Z,15.40
2023-03-13T05:06:05.468Z,13.77
2023-03-13T05:07:08.040Z,13.48
2023-03-13T05:08:11.189Z,14.57
2023-03-13T05:09:14.128Z,13.90
2023-03-13T05:10:17.906Z,17.10
2023-03-13T05:11:19.998Z,16.42
2023-03-13T05:12:22.060Z,17.48
2023-03-13T05:13:24.905Z,13.90
2023-03-13T05:14:27.733Z,12.73
2023-03-13T05:15:30.375Z,15.23
2023-03-13T05:16:32.747Z,14.98
2023-03-13T05:17:35.383Z,14.77
2023-03-13T05:18:37.630Z,15.20
2023-03-13T05:19:39.967Z,14.77
2023-03-13T05:20:41.935Z,17.33
2023-03-13T05:21:44.162Z,19.58
2023-03-13T05:22:46.795Z,25.48
2023-03-13T05:23:49.004Z,63.67
2023-03-13T05:24:51.401Z,79.93
2023-03-13T05:25:53.442Z,54.88
2023-03-13T05:26:55.544Z,42.97
2023-03-13T05:27:57.598Z,16.92
2023-03-13T05:28:59.818Z,17.42
2023-03-13T05:30:02.168Z,19.80
2023-03-13T05:31:05.017Z,14.60
2023-03-13T05:32:08.467Z,23.62
2023-03-13T05:33:10.926Z,15.60
2023-03-13T05:34:13.760Z,17.17
2023-03-13T05:35:16.251Z,19.30
2023-03-13T05:36:18.875Z,18.62
2023-03-13T05:37:21.159Z,22.62
2023-03-13T05:38:24.501Z,19.35
2023-03-13T05:39:28.464Z,16.33
2023-03-13T05:40:30.886Z,19.50
2023-03-13T05:41:32.997Z,15.35
2023-03-13T05:42:34.990Z,16.62
2023-03-13T05:43:37.580Z,15.50
2023-03-13T05:44:39.638Z,16.65
2023-03-13T05:45:41.936Z,16.90
2023-03-13T05:46:44.627Z,17.33
2023-03-13T05:47:48.665Z,17.35
2023-03-13T05:48:50.862Z,13.02
2023-03-13T05:49:53.108Z,17.90
2023-03-13T05:50:58.493Z,17.25
2023-03-13T05:52:01.176Z,18.37
2023-03-13T05:53:03.411Z,18.83
2023-03-13T05:54:05.587Z,20.52
2023-03-13T05:55:07.941Z,18.98
2023-03-13T05:56:10.617Z,20.15
2023-03-13T05:57:12.893Z,18.52
2023-03-13T05:58:15.316Z,19.12
2023-03-13T05:59:17.290Z,32.67
2023-03-13T06:00:22.559Z,33.65
2023-03-13T06:01:25.337Z,62.70
2023-03-13T06:02:27.524Z,30.60
2023-03-13T06:03:30.925Z,32.13
2023-03-13T06:04:33.958Z,21.15
2023-03-13T06:05:36.557Z,18.17
2023-03-13T06:06:39.244Z,15.73
2023-03-13T06:07:41.279Z,25.90
2023-03-13T06:08:43.900Z,23.02
2023-03-13T06:09:45.844Z,20.52
2023-03-13T06:10:48.605Z,15.65
2023-03-13T06:11:50.830Z,15.68
2023-03-13T06:12:57.423Z,15.00
2023-03-13T06:14:00.628Z,15.43
2023-03-13T06:15:02.932Z,15.88
2023-03-13T06:16:06.327Z,13.77
2023-03-13T06:17:09.016Z,16.05
2023-03-13T06:18:10.890Z,16.52
2023-03-13T06:19:12.909Z,15.18
2023-03-13T06:20:15.199Z,11.20
2023-03-13T06:21:17.326Z,16.50
2023-03-13T06:22:19.678Z,13.25
2023-03-13T06:23:21.595Z,15.30
2023-03-13T06:24:23.801Z,14.02
2023-03-13T06:25:25.706Z,12.77
2023-03-13T06:26:27.675Z,13.23
2023-03-13T06:27:30.296Z,12.02
2023-03-13T06:28:32.173Z,13.35
2023-03-13T06:29:34.074Z,14.18
2023-03-13T06:30:36.571Z,17.77
2023-03-13T06:31:38.765Z,16.12
2023-03-13T06:32:41.186Z,15.05
2023-03-13T06:33:43.132Z,15.27
2023-03-13T06:34:45.006Z,17.60
2023-03-13T06:35:56.170Z,14.68
2023-03-13T06:37:00.527Z,14.38
2023-03-13T06:38:02.928Z,15.30
2023-03-13T06:39:04.877Z,13.88
2023-03-13T06:40:07.183Z,15.15
2023-03-13T06:41:09.329Z,13.20
2023-03-13T06:42:11.287Z,14.38
2023-03-13T06:43:13.550Z,13.93
2023-03-13T06:44:15.449Z,13.98
2023-03-13T06:45:17.398Z,13.70
2023-03-13T06:46:22.647Z,13.32
2023-03-13T06:47:24.609Z,12.32
2023-03-13T06:48:26.814Z,21.25
2023-03-13T06:49:28.668Z,15.48
2023-03-13T06:50:30.900Z,13.90
2023-03-13T06:51:32.879Z,15.63
2023-03-13T06:52:43.328Z,17.10
2023-03-13T06:53:47.300Z,17.48
2023-03-13T06:54:49.332Z,17.02
2023-03-13T06:55:51.690Z,14.40
2023-03-13T06:56:53.717Z,16.33
2023-03-13T06:57:55.642Z,19.87
2023-03-13T06:58:59.901Z,15.93
2023-03-13T07:00:02.010Z,16.42
2023-03-13T07:01:12.873Z,25.17
2023-03-13T07:02:15.823Z,18.95
2023-03-13T07:03:17.670Z,15.18
2023-03-13T07:04:20.270Z,15.50
2023-03-13T07:05:22.180Z,15.32
2023-03-13T07:06:24.107Z,21.30
2023-03-13T07:07:31.695Z,14.18
2023-03-13T07:08:34.690Z,14.13
2023-03-13T07:09:36.877Z,13.60
2023-03-13T07:10:38.838Z,15.23
2023-03-13T07:11:40.691Z,15.68
2023-03-13T07:12:42.620Z,17.00
2023-03-13T07:13:44.604Z,15.10
2023-03-13T07:14:46.813Z,14.48
2023-03-13T07:15:48.780Z,13.10
2023-03-13T07:16:50.883Z,14.73
2023-03-13T07:17:52.898Z,14.35
2023-03-13T07:18:54.908Z,17.02
2023-03-13T07:19:57.163Z,15.13
2023-03-13T07:21:00.903Z,20.40
2023-03-13T07:22:02.897Z,16.52
2023-03-13T07:23:04.786Z,16.65
2023-03-13T07:24:07.094Z,13.15
2023-03-13T07:25:09.832Z,11.95
2023-03-13T07:26:14.656Z,14.68
2023-03-13T07:27:21.006Z,13.23
2023-03-13T07:28:23.975Z,17.52
2023-03-13T07:29:26.011Z,16.35
2023-03-13T07:30:28.694Z,16.73
2023-03-13T07:31:33.930Z,15.43
2023-03-13T07:32:36.176Z,16.62
2023-03-13T07:33:38.551Z,16.15
2023-03-13T07:34:40.493Z,17.70
2023-03-13T07:35:52.280Z,16.33
2023-03-13T07:36:54.182Z,17.08
2023-03-13T07:37:56.185Z,21.45
2023-03-13T07:38:58.043Z,23.80
2023-03-13T07:39:59.925Z,23.62
2023-03-13T07:41:02.214Z,16.17
2023-03-13T07:42:04.383Z,18.23
2023-03-13T07:43:06.364Z,23.40
2023-03-13T07:44:09.290Z,22.83
2023-03-13T07:45:12.081Z,18.77
2023-03-13T07:46:18.655Z,17.02
2023-03-13T07:47:20.660Z,16.95
2023-03-13T07:48:26.697Z,17.08
2023-03-13T07:49:28.685Z,14.27
2023-03-13T07:50:30.640Z,11.52
2023-03-13T07:51:43.041Z,13.68
2023-03-13T07:52:45.604Z,13.95
2023-03-13T07:53:48.040Z,16.00
2023-03-13T07:54:49.980Z,12.15
2023-03-13T07:55:59.976Z,11.77
2023-03-13T07:57:03.398Z,14.65
2023-03-13T07:58:05.618Z,15.40
2023-03-13T07:59:07.917Z,14.30
2023-03-13T08:00:16.449Z,13.82
2023-03-13T08:01:24.227Z,14.50
2023-03-13T08:02:27.797Z,17.92
2023-03-13T08:03:30.330Z,12.18
2023-03-13T08:04:32.256Z,17.67
2023-03-13T08:05:34.106Z,16.08
2023-03-13T08:06:36.744Z,13.38
2023-03-13T08:07:38.783Z,13.85
2023-03-13T08:08:41.512Z,11.75
2023-03-13T08:09:43.702Z,15.85
2023-03-13T08:10:45.629Z,12.43
2023-03-13T08:11:49.129Z,12.30
2023-03-13T08:12:51.344Z,14.40
2023-03-13T08:13:54.259Z,11.90
2023-03-13T08:14:57.051Z,12.07
2023-03-13T08:16:10.095Z,12.30
2023-03-13T08:17:12.478Z,10.93
2023-03-13T08:18:14.396Z,11.75
2023-03-13T08:19:16.258Z,12.57
2023-03-13T08:20:19.122Z,11.68
2023-03-13T08:21:26.580Z,10.77
2023-03-13T08:22:28.804Z,9.55
2023-03-13T08:23:30.858Z,10.55
2023-03-13T08:24:32.742Z,12.32
2023-03-13T08:25:34.592Z,10.50
2023-03-13T08:26:38.241Z,10.77
2023-03-13T08:27:40.395Z,11.52
2023-03-13T08:28:43.671Z,11.52
2023-03-13T08:29:45.565Z,9.07
2023-03-13T08:30:47.474Z,10.65
2023-03-13T08:31:52.603Z,10.20
2023-03-13T08:32:54.796Z,11.77
2023-03-13T08:33:56.750Z,12.27
2023-03-13T08:34:58.617Z,10.18
2023-03-13T08:36:00.625Z,11.35
2023-03-13T08:37:02.509Z,10.45
2023-03-13T08:38:04.774Z,9.60
2023-03-13T08:39:15.414Z,8.43
2023-03-13T08:40:17.413Z,11.00
2023-03-13T08:41:24.351Z,10.77
2023-03-13T08:42:26.216Z,10.15
2023-03-13T08:43:28.429Z,10.20
2023-03-13T08:44:30.343Z,8.13
2023-03-13T08:45:32.250Z,12.43
2023-03-13T08:46:35.950Z,9.85
2023-03-13T08:47:37.968Z,9.82
2023-03-13T08:48:40.975Z,10.27
2023-03-13T08:49:42.878Z,10.45
2023-03-13T08:50:44.718Z,9.40
2023-03-13T08:51:46.625Z,9.07
2023-03-13T08:52:48.545Z,9.32
2023-03-13T08:53:51.866Z,10.75
2023-03-13T08:54:54.004Z,13.02
2023-03-13T08:55:55.883Z,12.23
2023-03-13T08:56:57.908Z,9.85
2023-03-13T08:57:59.860Z,8.02
2023-03-13T08:59:04.070Z,8.23
2023-03-13T09:00:06.824Z,11.20
2023-03-13T09:01:14.274Z,9.80
2023-03-13T09:02:20.023Z,9.60
2023-03-13T09:03:22.049Z,9.68
2023-03-13T09:04:24.638Z,11.18
2023-03-13T09:05:26.566Z,11.32
2023-03-13T09:06:28.511Z,11.27
2023-03-13T09:07:30.410Z,10.43
2023-03-13T09:08:33.352Z,7.75
2023-03-13T09:09:35.706Z,9.15
2023-03-13T09:10:37.592Z,7.25
2023-03-13T09:11:39.904Z,8.18
2023-03-13T09:12:42.297Z,9.85
2023-03-13T09:13:47.821Z,8.88
2023-03-13T09:14:50.038Z,7.82
2023-03-13T09:16:00.334Z,11.80
2023-03-13T09:17:02.326Z,7.32
2023-03-13T09:18:04.386Z,6.65
2023-03-13T09:19:06.647Z,8.30
2023-03-13T09:20:09.594Z,7.45
2023-03-13T09:21:32.034Z,9.90
2023-03-13T09:22:33.959Z,10.13
2023-03-13T09:23:36.307Z,10.15
2023-03-13T09:24:38.560Z,14.07
2023-03-13T09:25:40.794Z,9.68
2023-03-13T09:26:59.969Z,8.13
2023-03-13T09:28:02.410Z,12.43
2023-03-13T09:29:04.397Z,11.25
2023-03-13T09:30:07.166Z,7.45
2023-03-13T09:31:31.149Z,6.72
2023-03-13T09:32:33.733Z,9.73
2023-03-13T09:33:36.123Z,6.28
2023-03-13T09:34:38.121Z,7.65
2023-03-13T09:35:40.267Z,6.87
2023-03-13T09:36:42.561Z,5.80
2023-03-13T09:37:44.708Z,9.77
2023-03-13T09:38:46.802Z,12.75
2023-03-13T09:39:49.724Z,12.57
2023-03-13T09:41:05.619Z,7.00
2023-03-13T09:42:20.544Z,9.82
2023-03-13T09:43:40.445Z,9.27
2023-03-13T09:44:59.714Z,8.23
2023-03-13T09:46:04.939Z,5.75
2023-03-13T09:47:22.658Z,8.90
2023-03-13T09:48:38.821Z,8.10
2023-03-13T09:50:12.209Z,8.57
2023-03-13T09:51:23.440Z,8.85
2023-03-13T09:52:29.147Z,9.90
2023-03-13T09:53:55.046Z,8.30
2023-03-13T09:54:56.865Z,9.88
2023-03-13T09:55:58.754Z,6.97
2023-03-13T09:57:06.633Z,7.78
2023-03-13T09:58:20.078Z,6.68
2023-03-13T09:59:36.702Z,5.35
2023-03-13T10:00:46.726Z,9.80
2023-03-13T10:01:50.800Z,6.82
2023-03-13T10:03:10.857Z,6.32
2023-03-13T10:04:28.405Z,7.40
2023-03-13T10:05:32.078Z,7.85
2023-03-13T10:06:42.301Z,8.05
2023-03-13T10:07:44.952Z,6.30
2023-03-13T10:08:46.989Z,7.82
2023-03-13T10:09:49.625Z,5.18
2023-03-13T10:11:23.236Z,10.45
2023-03-13T10:12:29.090Z,8.20
2023-03-13T10:13:37.937Z,5.85
2023-03-13T10:14:46.882Z,6.12
2023-03-13T10:15:56.916Z,7.75
2023-03-13T10:17:13.439Z,11.98
2023-03-13T10:18:22.250Z,10.45
2023-03-13T10:19:39.852Z,6.90
2023-03-13T10:20:43.131Z,10.25
2023-03-13T10:21:50.330Z,8.70
2023-03-13T10:23:03.534Z,14.13
2023-03-13T10:24:32.962Z,8.18
2023-03-13T10:25:40.582Z,4.62
2023-03-13T10:26:42.530Z,7.28
2023-03-13T10:27:54.905Z,6.47
2023-03-13T10:29:01.183Z,6.70
2023-03-13T10:30:03.216Z,7.25
2023-03-13T10:31:14.578Z,5.68
2023-03-13T10:32:18.800Z,7.85
2023-03-13T10:33:28.945Z,9.73
2023-03-13T10:34:48.984Z,7.72
2023-03-13T10:36:11.929Z,9.90
2023-03-13T10:37:16.437Z,7.72
2023-03-13T10:38:21.013Z,11.50
2023-03-13T10:39:24.370Z,7.97
2023-03-13T10:40:28.011Z,6.22
2023-03-13T10:41:38.521Z,8.93
2023-03-13T10:42:45.737Z,12.43
2023-03-13T10:43:58.533Z,8.18
2023-03-13T10:45:03.533Z,7.65
2023-03-13T10:46:06.331Z,11.98
2023-03-13T10:47:13.843Z,8.10
2023-03-13T10:48:23.083Z,7.00
2023-03-13T10:49:24.983Z,8.18
2023-03-13T10:50:32.147Z,5.90
2023-03-13T10:51:38.918Z,8.90
2023-03-13T10:52:45.480Z,8.50
2023-03-13T10:53:47.672Z,8.13
2023-03-13T10:54:49.566Z,8.48
2023-03-13T10:55:56.151Z,9.38
2023-03-13T10:57:20.131Z,7.70
2023-03-13T10:58:33.300Z,10.18
2023-03-13T10:59:46.401Z,8.32
2023-03-13T11:00:49.878Z,9.43
2023-03-13T11:01:53.811Z,7.03
2023-03-13T11:02:56.357Z,7.85
2023-03-13T11:04:01.887Z,8.02
2023-03-13T11:05:26.151Z,9.32
2023-03-13T11:06:34.939Z,9.82
2023-03-13T11:07:38.302Z,5.37
2023-03-13T11:08:42.262Z,14.87
2023-03-13T11:09:52.523Z,10.93
2023-03-13T11:11:00.252Z,10.55
2023-03-13T11:12:11.989Z,8.48
2023-03-13T11:13:38.287Z,7.30
2023-03-13T11:14:40.737Z,7.03
2023-03-13T11:15:51.673Z,5.40
2023-03-13T11:17:18.996Z,9.40
2023-03-13T11:18:50.139Z,7.35
2023-03-13T11:19:58.107Z,7.95
2023-03-13T11:21:15.924Z,10.60
2023-03-13T11:22:32.693Z,9.55
2023-03-13T11:23:43.775Z,6.93
2023-03-13T11:25:13.300Z,7.37
2023-03-13T11:26:39.064Z,7.03
2023-03-13T11:27:43.820Z,5.60
2023-03-13T11:29:03.953Z,10.75
2023-03-13T11:30:39.697Z,9.23
2023-03-13T11:31:47.564Z,7.45
2023-03-13T11:33:00.727Z,7.62
2023-03-13T11:34:27.900Z,9.63
2023-03-13T11:35:39.333Z,9.38
2023-03-13T11:37:10.056Z,9.30
2023-03-13T11:38:31.650Z,5.97
2023-03-13T11:39:47.978Z,7.15
2023-03-13T11:41:05.292Z,11.15
2023-03-13T11:42:48.356Z,9.02
2023-03-13T11:44:10.691Z,9.00
2023-03-13T11:45:27.749Z,8.07
2023-03-13T11:46:51.500Z,9.07
2023-03-13T11:48:05.459Z,10.15
2023-03-13T11:49:26.380Z,9.90
2023-03-13T11:50:31.041Z,9.30
2023-03-13T11:51:58.944Z,6.65
2023-03-13T11:53:03.772Z,11.60
2023-03-13T11:54:24.367Z,9.55
2023-03-13T11:55:35.244Z,9.45
2023-03-13T11:56:43.852Z,16.45
2023-03-13T11:57:54.758Z,7.45
2023-03-13T11:59:33.369Z,6.60
2023-03-13T12:00:47.868Z,7.70
2023-03-13T12:01:56.719Z,13.32
2023-03-13T12:03:11.882Z,10.07
2023-03-13T12:04:45.659Z,5.97
2023-03-13T12:05:53.823Z,18.08
2023-03-13T12:07:05.289Z,8.57
2023-03-13T12:08:16.126Z,9.50
2023-03-13T12:09:28.811Z,8.73
2023-03-13T12:10:37.393Z,10.90
2023-03-13T12:11:50.064Z,10.13
2023-03-13T12:13:04.269Z,7.35
2023-03-13T12:14:13.327Z,14.68
2023-03-13T12:15:37.125Z,6.60
2023-03-13T12:16:41.509Z,6.32
2023-03-13T12:17:50.600Z,7.12
2023-03-13T12:18:53.820Z,7.57
2023-03-13T12:20:02.551Z,9.80
2023-03-13T12:21:32.167Z,8.48
2023-03-13T12:22:40.449Z,8.13
2023-03-13T12:24:00.730Z,7.45
2023-03-13T12:25:18.071Z,11.70
2023-03-13T12:26:25.838Z,9.98
2023-03-13T12:27:33.570Z,11.27
2023-03-13T12:28:50.348Z,6.95
2023-03-13T12:30:15.537Z,7.40
2023-03-13T12:31:40.902Z,11.60
2023-03-13T12:33:13.132Z,9.50
2023-03-13T12:34:18.524Z,8.32
2023-03-13T12:35:28.973Z,10.50
2023-03-13T12:37:06.856Z,7.47
2023-03-13T12:38:31.322Z,11.32
2023-03-13T12:39:35.762Z,6.93
2023-03-13T12:41:10.569Z,11.35
2023-03-13T12:42:15.820Z,6.95
2023-03-13T12:43:25.789Z,8.93
2023-03-13T12:44:28.107Z,12.70
2023-03-13T12:45:30.546Z,11.30
2023-03-13T12:46:44.805Z,12.37
2023-03-13T12:48:15.122Z,9.07
2023-03-13T12:49:43.401Z,10.18
2023-03-13T12:51:05.526Z,7.35
2023-03-13T12:52:38.488Z,11.18
2023-03-13T12:53:59.542Z,7.25
2023-03-13T12:55:38.620Z,10.13
2023-03-13T12:56:49.590Z,7.90
2023-03-13T12:58:13.206Z,5.77
2023-03-13T12:59:20.644Z,9.55
2023-03-13T13:00:26.858Z,9.02
2023-03-13T13:01:31.698Z,7.82
2023-03-13T13:02:33.615Z,10.82
2023-03-13T13:03:59.380Z,10.85
2023-03-13T13:05:02.918Z,10.65
2023-03-13T13:06:13.912Z,9.02
2023-03-13T13:07:28.619Z,10.00
2023-03-13T13:08:41.667Z,11.45
2023-03-13T13:10:00.400Z,9.80
2023-03-13T13:11:33.557Z,8.65
2023-03-13T13:12:40.366Z,5.65
2023-03-13T13:13:42.295Z,7.25
2023-03-13T13:14:50.222Z,7.97
2023-03-13T13:16:07.839Z,8.55
2023-03-13T13:17:32.162Z,10.07
2023-03-13T13:18:34.753Z,10.85
2023-03-13T13:19:45.444Z,9.00
2023-03-13T13:21:15.581Z,6.82
2023-03-13T13:22:38.995Z,12.68
2023-03-13T13:23:46.798Z,8.77
2023-03-13T13:24:57.471Z,8.38
2023-03-13T13:26:36.181Z,7.90
2023-03-13T13:27:38.314Z,8.55
2023-03-13T13:28:43.852Z,13.00
2023-03-13T13:29:45.747Z,11.75
2023-03-13T13:30:54.558Z,10.30
2023-03-13T13:32:00.279Z,7.28
2023-03-13T13:33:21.445Z,8.23
2023-03-13T13:34:30.013Z,4.85
2023-03-13T13:35:34.991Z,6.62
2023-03-13T13:36:43.794Z,8.75
2023-03-13T13:37:48.115Z,8.05
2023-03-13T13:38:51.967Z,6.05
2023-03-13T13:39:55.167Z,7.97
2023-03-13T13:41:21.840Z,11.63
2023-03-13T13:42:32.696Z,8.95
2023-03-13T13:43:43.139Z,10.45
2023-03-13T13:45:02.832Z,10.23
2023-03-13T13:46:25.520Z,6.12
2023-03-13T13:47:32.412Z,9.45
2023-03-13T13:48:40.035Z,6.80
2023-03-13T13:49:54.498Z,9.40
2023-03-13T13:51:14.988Z,8.63
2023-03-13T13:52:18.456Z,4.70
2023-03-13T13:53:33.527Z,8.20
2023-03-13T13:54:47.431Z,4.95
2023-03-13T13:55:49.837Z,11.32
2023-03-13T13:57:16.490Z,5.07
2023-03-13T13:58:21.682Z,10.60
2023-03-13T13:59:27.027Z,7.97
2023-03-13T14:00:38.996Z,7.18
2023-03-13T14:01:43.385Z,5.18
2023-03-13T14:02:56.965Z,6.93
2023-03-13T14:04:24.552Z,5.97
2023-03-13T14:05:29.536Z,6.03
2023-03-13T14:06:36.650Z,6.37
2023-03-13T14:07:45.970Z,5.80
2023-03-13T14:08:52.005Z,5.70
2023-03-13T14:10:12.206Z,10.80
2023-03-13T14:11:37.415Z,17.67
2023-03-13T14:12:39.744Z,9.43
2023-03-13T14:13:42.095Z,6.40
2023-03-13T14:14:43.992Z,7.50
2023-03-13T14:15:48.897Z,5.95
2023-03-13T14:16:54.142Z,8.52
2023-03-13T14:18:09.555Z,5.95
2023-03-13T14:19:38.031Z,8.45
2023-03-13T14:20:54.297Z,7.30
2023-03-13T14:22:01.500Z,7.53
2023-03-13T14:23:06.681Z,6.45